Time;durP1;ratioP1;P1;durP2;ratioP2;P2;SDS_P1;SDS_P2;PMS_P1;PMS_P2;Temp;Humidity;BMP_temperature;BMP_pressure;BME280_temperature;BME280_humidity;BME280_pressure;Samples;Min_cycle;Max_cycle;Signal;HPM_P1;HPM_P2
2020/12/16 00:02:19;;;;;;;11.40;5.47;;;7.50;99.90;;;;;;5048698;28;20074;-75
2020/12/16 00:04:47;;;;;;;14.38;5.60;;;7.50;99.90;;;;;;5050201;28;20032;-74
2020/12/16 00:07:13;;;;;;;11.77;5.65;;;7.40;99.90;;;;;;5049157;28;20025;-75
2020/12/16 00:09:39;;;;;;;8.07;5.15;;;7.30;99.90;;;;;;5050041;28;20642;-75
2020/12/16 00:12:05;;;;;;;11.40;5.88;;;7.30;99.90;;;;;;5050233;28;20033;-75
2020/12/16 00:14:30;;;;;;;7.60;4.80;;;7.10;99.90;;;;;;5049781;28;20029;-75
2020/12/16 00:16:56;;;;;;;7.78;4.80;;;7.10;99.90;;;;;;5050097;28;20021;-75
2020/12/16 00:19:22;;;;;;;6.90;5.35;;;7.20;99.90;;;;;;5049848;28;20033;-75
2020/12/16 00:21:48;;;;;;;7.50;5.10;;;7.20;99.90;;;;;;5050524;28;20021;-75
2020/12/16 00:24:13;;;;;;;9.15;5.13;;;7.10;99.90;;;;;;5049960;28;20020;-75
2020/12/16 00:26:41;;;;;;;7.13;5.07;;;7.00;99.90;;;;;;5050018;28;20105;-75
2020/12/16 00:29:07;;;;;;;7.35;4.65;;;7.20;99.90;;;;;;5053361;28;20029;-75
2020/12/16 00:31:32;;;;;;;10.93;4.55;;;7.20;99.90;;;;;;5052967;22;20076;-77
2020/12/16 00:33:58;;;;;;;8.23;4.55;;;7.20;99.90;;;;;;5034709;28;20026;-78
2020/12/16 00:36:24;;;;;;;8.70;4.65;;;7.20;99.90;;;;;;5041537;28;20025;-79
2020/12/16 00:38:50;;;;;;;7.38;4.63;;;7.10;99.90;;;;;;5045720;28;20473;-80
2020/12/16 00:41:16;;;;;;;7.50;4.63;;;7.00;99.90;;;;;;5045320;28;20030;-79
2020/12/16 00:43:41;;;;;;;6.80;4.75;;;7.00;99.90;;;;;;5058588;28;20105;-79
2020/12/16 00:46:07;;;;;;;8.50;4.97;;;7.10;99.90;;;;;;5040818;28;20028;-79
2020/12/16 00:48:33;;;;;;;11.50;5.03;;;7.30;99.90;;;;;;5062189;28;20021;-79
2020/12/16 00:50:58;;;;;;;6.72;4.43;;;7.30;99.90;;;;;;5045044;28;20451;-79
2020/12/16 00:53:24;;;;;;;8.02;5.20;;;7.20;99.90;;;;;;5028961;28;20033;-79
2020/12/16 00:55:50;;;;;;;8.68;5.45;;;7.30;99.90;;;;;;5046655;28;20396;-79
2020/12/16 00:58:16;;;;;;;7.07;4.47;;;7.20;99.90;;;;;;5045272;28;20043;-79
2020/12/16 01:00:41;;;;;;;8.30;4.45;;;7.00;99.90;;;;;;5044751;28;20543;-79
2020/12/16 01:03:07;;;;;;;9.20;5.15;;;7.00;99.90;;;;;;5046137;28;20021;-79
2020/12/16 01:05:33;;;;;;;7.35;4.60;;;6.90;99.90;;;;;;5026996;28;20025;-79
2020/12/16 01:07:58;;;;;;;8.10;4.70;;;6.90;99.90;;;;;;5061553;28;20017;-80
2020/12/16 01:10:24;;;;;;;7.00;4.80;;;6.90;99.90;;;;;;5027094;28;20108;-79
2020/12/16 01:12:50;;;;;;;8.27;5.60;;;6.80;99.90;;;;;;5046140;28;20444;-79
2020/12/16 01:15:21;;;;;;;8.82;4.45;;;6.70;99.90;;;;;;5043201;28;20029;-79
2020/12/16 01:17:48;;;;;;;9.43;4.78;;;6.70;99.90;;;;;;5045422;28;20036;-79
2020/12/16 01:20:14;;;;;;;7.65;4.30;;;6.80;99.90;;;;;;5059573;28;20025;-79
2020/12/16 01:22:41;;;;;;;7.93;4.75;;;6.70;99.90;;;;;;5043153;28;20028;-79
2020/12/16 01:25:07;;;;;;;9.82;4.95;;;6.80;99.90;;;;;;5042414;28;20032;-79
2020/12/16 01:27:34;;;;;;;7.43;4.50;;;6.90;99.90;;;;;;5043474;28;20476;-79
2020/12/16 01:30:00;;;;;;;10.23;5.05;;;7.00;99.90;;;;;;5042288;28;20029;-79
2020/12/16 01:32:26;;;;;;;9.35;5.32;;;6.90;99.90;;;;;;5044235;28;20045;-79
2020/12/16 01:34:53;;;;;;;8.48;4.65;;;6.70;99.90;;;;;;5044546;28;20029;-80
2020/12/16 01:37:18;;;;;;;8.50;4.93;;;6.50;99.90;;;;;;5042750;28;20033;-79
2020/12/16 01:39:45;;;;;;;6.03;4.38;;;6.60;99.90;;;;;;5043811;28;20026;-79
2020/12/16 01:42:13;;;;;;;7.35;4.13;;;6.50;99.90;;;;;;5043730;28;20036;-79
2020/12/16 01:44:39;;;;;;;8.27;5.28;;;6.40;99.90;;;;;;5043180;28;20080;-79
2020/12/16 01:47:05;;;;;;;7.55;5.07;;;6.50;99.90;;;;;;5043294;28;20022;-79
2020/12/16 01:49:30;;;;;;;8.35;5.47;;;6.60;99.90;;;;;;5058315;28;20028;-79
2020/12/16 01:51:59;;;;;;;8.18;5.05;;;6.60;99.90;;;;;;5058199;28;20075;-79
2020/12/16 01:54:25;;;;;;;8.10;5.22;;;6.50;99.90;;;;;;5043135;28;20052;-79
2020/12/16 01:56:55;;;;;;;8.07;4.82;;;6.40;99.90;;;;;;5041489;28;20093;-78
2020/12/16 01:59:21;;;;;;;9.60;5.03;;;6.40;99.90;;;;;;5025463;28;20028;-79
2020/12/16 02:01:52;;;;;;;6.55;4.68;;;6.30;99.90;;;;;;5041456;28;20037;-79
2020/12/16 02:04:24;;;;;;;7.82;5.32;;;6.30;99.90;;;;;;5040670;28;20022;-79
2020/12/16 02:06:51;;;;;;;8.85;5.18;;;6.40;99.90;;;;;;5041043;28;20017;-79
2020/12/16 02:09:20;;;;;;;9.02;5.55;;;6.50;99.90;;;;;;5040682;28;20056;-79
2020/12/16 02:11:46;;;;;;;11.57;5.95;;;6.40;99.90;;;;;;5038951;28;20037;-79
2020/12/16 02:14:12;;;;;;;7.20;5.00;;;6.30;99.90;;;;;;5038688;28;20081;-79
2020/12/16 02:16:39;;;;;;;11.60;5.60;;;6.40;99.90;;;;;;5038668;28;20092;-79
2020/12/16 02:19:06;;;;;;;9.15;5.68;;;6.40;99.90;;;;;;5023904;28;20029;-79
2020/12/16 02:21:33;;;;;;;11.02;5.70;;;6.50;99.90;;;;;;5041669;28;20024;-79
2020/12/16 02:24:07;;;;;;;13.00;6.15;;;6.50;99.90;;;;;;5056933;28;20026;-79
2020/12/16 02:26:39;;;;;;;11.52;5.88;;;6.50;99.90;;;;;;5057084;28;20029;-79
2020/12/16 02:29:06;;;;;;;9.95;5.95;;;6.60;99.90;;;;;;5040470;28;20028;-79
2020/12/16 02:31:35;;;;;;;7.00;5.40;;;6.50;99.90;;;;;;5039926;28;20044;-79
2020/12/16 02:34:00;;;;;;;8.13;5.43;;;6.30;99.90;;;;;;5039716;28;20032;-79
2020/12/16 02:36:26;;;;;;;6.88;4.88;;;6.20;99.90;;;;;;5040233;28;20093;-80
2020/12/16 02:38:54;;;;;;;8.50;5.38;;;6.30;99.90;;;;;;5024359;28;20405;-79
2020/12/16 02:41:23;;;;;;;8.35;5.40;;;6.30;99.90;;;;;;5057752;28;20025;-79
2020/12/16 02:43:49;;;;;;;10.32;4.88;;;6.00;99.90;;;;;;5040519;28;20021;-79
2020/12/16 02:46:16;;;;;;;10.43;5.20;;;6.10;99.90;;;;;;5058330;28;20690;-79
2020/12/16 02:48:42;;;;;;;9.60;5.45;;;6.20;99.90;;;;;;5044526;28;20048;-79
2020/12/16 02:51:08;;;;;;;10.27;5.40;;;6.30;99.90;;;;;;5040897;28;20025;-79
2020/12/16 02:53:34;;;;;;;8.73;5.82;;;6.40;99.90;;;;;;5041026;28;20056;-79
2020/12/16 02:56:00;;;;;;;11.82;5.30;;;6.40;99.90;;;;;;5040556;28;20029;-79
2020/12/16 02:58:26;;;;;;;6.97;4.78;;;6.50;99.90;;;;;;5040931;28;20060;-79
2020/12/16 03:00:52;;;;;;;6.43;4.80;;;6.50;99.90;;;;;;5040635;28;20022;-79
2020/12/16 03:03:18;;;;;;;13.05;7.40;;;6.60;99.90;;;;;;5042014;28;20021;-79
2020/12/16 03:05:44;;;;;;;14.23;8.60;;;6.50;99.90;;;;;;5042961;28;20028;-79
2020/12/16 03:08:10;;;;;;;14.27;8.35;;;6.50;99.90;;;;;;5044233;28;20040;-79
2020/12/16 03:10:37;;;;;;;15.40;10.15;;;6.50;99.90;;;;;;5040601;28;20061;-79
2020/12/16 03:13:04;;;;;;;19.73;12.20;;;6.40;99.90;;;;;;5041407;28;20021;-79
2020/12/16 03:15:30;;;;;;;21.25;12.93;;;6.00;99.90;;;;;;5041491;28;20025;-79
2020/12/16 03:17:56;;;;;;;21.45;13.82;;;5.90;99.90;;;;;;5041996;28;20092;-79
2020/12/16 03:20:22;;;;;;;19.50;14.07;;;6.00;99.90;;;;;;5042396;28;20548;-79
2020/12/16 03:22:47;;;;;;;18.80;13.00;;;6.10;99.90;;;;;;5041818;28;20053;-79
2020/12/16 03:25:13;;;;;;;19.98;13.73;;;6.10;99.90;;;;;;5043331;28;20021;-79
2020/12/16 03:27:39;;;;;;;20.85;14.35;;;6.00;99.90;;;;;;5055974;28;20033;-79
2020/12/16 03:30:06;;;;;;;21.55;14.60;;;5.90;99.90;;;;;;5039327;28;20056;-79
2020/12/16 03:32:32;;;;;;;21.20;13.63;;;5.90;99.90;;;;;;5038918;28;20033;-79
2020/12/16 03:34:58;;;;;;;21.95;14.65;;;5.80;99.90;;;;;;5056339;28;20021;-79
2020/12/16 03:37:24;;;;;;;20.77;13.85;;;5.60;99.90;;;;;;5039618;28;20032;-78
2020/12/16 03:39:49;;;;;;;23.85;14.70;;;5.40;99.90;;;;;;5038883;28;20041;-79
2020/12/16 03:42:15;;;;;;;23.75;15.27;;;5.40;99.90;;;;;;5038165;28;20025;-78
2020/12/16 03:44:41;;;;;;;23.08;15.07;;;5.50;99.90;;;;;;5039594;28;20018;-79
2020/12/16 03:47:07;;;;;;;24.55;16.42;;;5.50;99.90;;;;;;5040887;28;20072;-79
2020/12/16 03:49:32;;;;;;;21.90;15.45;;;5.40;99.90;;;;;;5043772;28;20049;-79
2020/12/16 03:51:58;;;;;;;25.35;16.92;;;5.30;99.90;;;;;;5041766;28;20048;-79
2020/12/16 03:54:25;;;;;;;29.73;18.30;;;5.10;99.90;;;;;;5023224;28;20025;-79
2020/12/16 03:56:51;;;;;;;29.80;18.75;;;5.10;99.90;;;;;;5039536;28;20028;-79
2020/12/16 03:59:17;;;;;;;32.88;19.10;;;5.10;99.90;;;;;;5041773;28;20025;-78
2020/12/16 04:01:43;;;;;;;30.55;16.60;;;5.20;99.90;;;;;;5038813;28;20057;-79
2020/12/16 04:04:09;;;;;;;30.88;17.40;;;5.20;99.90;;;;;;5043593;28;20139;-79
2020/12/16 04:06:36;;;;;;;27.63;17.10;;;5.20;99.90;;;;;;5043463;28;20021;-78
2020/12/16 04:09:04;;;;;;;25.58;16.48;;;5.20;99.90;;;;;;5060804;28;20017;-79
2020/12/16 04:11:30;;;;;;;26.75;16.58;;;5.30;99.90;;;;;;5043899;28;20025;-79
2020/12/16 04:13:55;;;;;;;27.38;16.92;;;5.40;99.90;;;;;;5044007;28;20109;-79
2020/12/16 04:16:22;;;;;;;29.23;17.15;;;5.40;99.90;;;;;;5044002;28;20115;-79
2020/12/16 04:18:49;;;;;;;29.10;17.75;;;5.40;99.90;;;;;;5042614;28;20021;-79
2020/12/16 04:21:17;;;;;;;73.65;18.80;;;5.40;99.90;;;;;;5042136;28;20022;-79
2020/12/16 04:23:43;;;;;;;29.52;16.83;;;5.20;99.90;;;;;;5060378;28;20032;-79
2020/12/16 04:26:09;;;;;;;31.83;17.13;;;5.10;99.90;;;;;;5043489;28;20018;-79
2020/12/16 04:28:36;;;;;;;29.40;16.52;;;5.10;99.90;;;;;;5044915;28;20029;-79
2020/12/16 04:31:07;;;;;;;41.42;18.77;;;5.00;99.90;;;;;;5043249;28;20033;-79
2020/12/16 04:33:33;;;;;;;34.67;17.63;;;4.80;99.90;;;;;;5042790;28;20389;-79
2020/12/16 04:35:59;;;;;;;25.90;17.48;;;4.70;99.90;;;;;;5042733;28;20112;-80
2020/12/16 04:38:25;;;;;;;39.33;17.50;;;4.60;99.90;;;;;;5042979;28;20089;-79
2020/12/16 04:40:50;;;;;;;28.90;15.68;;;4.40;99.90;;;;;;5043336;28;20048;-79
2020/12/16 04:43:21;;;;;;;28.02;16.35;;;4.50;99.90;;;;;;5042940;28;20017;-79
2020/12/16 04:45:48;;;;;;;23.58;16.17;;;4.70;99.90;;;;;;5042155;28;20025;-80
2020/12/16 04:48:15;;;;;;;30.88;16.27;;;4.70;99.90;;;;;;5043223;28;20014;-79
2020/12/16 04:50:43;;;;;;;22.42;14.93;;;4.60;99.90;;;;;;5058865;28;20385;-79
2020/12/16 04:53:19;;;;;;;21.73;14.20;;;4.50;99.90;;;;;;5041822;28;20036;-79
2020/12/16 04:55:46;;;;;;;19.30;13.57;;;4.40;99.90;;;;;;5043245;28;20022;-79
2020/12/16 04:58:12;;;;;;;18.92;13.38;;;4.70;99.90;;;;;;5058350;28;20037;-79
2020/12/16 05:00:38;;;;;;;16.92;12.93;;;4.80;99.90;;;;;;5041435;28;20048;-79
2020/12/16 05:03:07;;;;;;;20.73;13.73;;;4.90;99.90;;;;;;5058626;28;20032;-79
2020/12/16 05:05:33;;;;;;;21.13;14.68;;;4.90;99.90;;;;;;5058217;28;20021;-79
2020/12/16 05:08:12;;;;;;;20.85;14.27;;;5.00;99.90;;;;;;5057986;28;20029;-79
2020/12/16 05:10:48;;;;;;;19.20;13.32;;;5.10;99.90;;;;;;5042238;28;20084;-79
2020/12/16 05:13:19;;;;;;;16.75;12.13;;;5.20;99.90;;;;;;5041621;28;20511;-79
2020/12/16 05:15:47;;;;;;;20.25;13.57;;;5.20;99.90;;;;;;5057721;28;20029;-79
2020/12/16 05:18:21;;;;;;;23.73;13.02;;;4.90;99.90;;;;;;5041826;28;20424;-80
2020/12/16 05:20:52;;;;;;;21.58;14.07;;;4.60;99.90;;;;;;5041168;28;20424;-79
2020/12/16 05:23:19;;;;;;;17.27;12.70;;;4.60;99.90;;;;;;5041468;28;20041;-79
2020/12/16 05:26:02;;;;;;;15.88;11.65;;;4.50;99.90;;;;;;5041486;28;20026;-79
2020/12/16 05:28:30;;;;;;;22.90;14.23;;;4.70;99.90;;;;;;5040830;28;20021;-79
2020/12/16 05:30:57;;;;;;;25.85;14.45;;;4.80;99.90;;;;;;5042143;28;20056;-79
2020/12/16 05:33:23;;;;;;;23.88;14.65;;;4.80;99.90;;;;;;5041581;28;20105;-79
2020/12/16 05:35:53;;;;;;;20.95;14.27;;;4.70;99.90;;;;;;5041250;28;20030;-78
2020/12/16 05:38:20;;;;;;;22.33;15.45;;;4.60;99.90;;;;;;5041758;28;20025;-79
2020/12/16 05:40:46;;;;;;;20.08;14.38;;;4.40;99.90;;;;;;5058349;28;20444;-79
2020/12/16 05:43:26;;;;;;;22.23;14.75;;;4.40;99.90;;;;;;5041046;28;20025;-79
2020/12/16 05:45:52;;;;;;;21.05;14.05;;;4.30;99.90;;;;;;5041246;28;20467;-79
2020/12/16 05:48:18;;;;;;;23.00;13.88;;;4.20;99.90;;;;;;5040616;28;20018;-79
2020/12/16 05:50:50;;;;;;;21.27;14.80;;;4.30;99.90;;;;;;5039617;28;20117;-79
2020/12/16 05:53:20;;;;;;;20.25;13.88;;;4.30;99.90;;;;;;5040745;28;20144;-79
2020/12/16 05:55:50;;;;;;;24.42;14.90;;;4.10;99.90;;;;;;5042563;28;20184;-79
2020/12/16 05:58:18;;;;;;;30.52;19.42;;;4.20;99.90;;;;;;5040340;28;20785;-79
2020/12/16 06:00:59;;;;;;;27.50;16.17;;;4.40;99.90;;;;;;5040083;28;20026;-79
2020/12/16 06:03:35;;;;;;;40.47;23.58;;;4.60;99.90;;;;;;5041839;28;20026;-78
2020/12/16 06:06:03;;;;;;;34.63;20.33;;;4.40;99.90;;;;;;5040815;28;20105;-79
2020/12/16 06:08:40;;;;;;;28.90;17.08;;;4.40;99.90;;;;;;5040895;28;20035;-79
2020/12/16 06:11:09;;;;;;;32.72;18.33;;;4.50;99.90;;;;;;5057806;28;20052;-79
2020/12/16 06:13:36;;;;;;;29.98;17.40;;;4.40;99.90;;;;;;5040667;28;20087;-79
2020/12/16 06:16:06;;;;;;;27.85;17.35;;;4.40;99.90;;;;;;5056595;28;20029;-79
2020/12/16 06:18:37;;;;;;;29.02;18.15;;;4.40;99.90;;;;;;5039523;28;20116;-79
2020/12/16 06:21:04;;;;;;;36.85;18.55;;;4.30;99.90;;;;;;5040367;28;20028;-79
2020/12/16 06:23:33;;;;;;;36.40;20.95;;;4.40;99.90;;;;;;5039824;28;20068;-79
2020/12/16 06:26:00;;;;;;;64.50;20.50;;;4.40;99.90;;;;;;5038934;28;20025;-78
2020/12/16 06:28:26;;;;;;;30.95;19.38;;;4.30;99.90;;;;;;5023932;28;20120;-79
2020/12/16 06:31:32;;;;;;;33.72;18.58;;;4.40;99.90;;;;;;5037715;28;20037;-79
2020/12/16 06:34:02;;;;;;;28.95;16.23;;;4.20;99.90;;;;;;5023531;28;20048;-78
2020/12/16 06:36:31;;;;;;;36.13;19.70;;;4.00;99.90;;;;;;5041768;28;20025;-79
2020/12/16 06:38:58;;;;;;;29.98;17.73;;;3.80;99.90;;;;;;5038415;28;20017;-79
2020/12/16 06:41:31;;;;;;;31.23;18.23;;;3.90;99.90;;;;;;5018390;28;20032;-79
2020/12/16 06:44:10;;;;;;;36.42;17.63;;;3.90;99.90;;;;;;5037854;28;20029;-79
2020/12/16 06:46:42;;;;;;;34.80;19.92;;;4.00;99.90;;;;;;5022543;28;20021;-79
2020/12/16 06:49:27;;;;;;;46.47;19.17;;;3.90;99.90;;;;;;5041415;28;20021;-79
2020/12/16 06:51:59;;;;;;;46.05;21.00;;;3.80;99.90;;;;;;5040948;28;20633;-78
2020/12/16 06:54:34;;;;;;;87.13;22.52;;;3.70;99.90;;;;;;5038559;28;20021;-79
2020/12/16 06:57:12;;;;;;;51.28;19.13;;;3.80;99.90;;;;;;5041551;28;20037;-79
2020/12/16 06:59:49;;;;;;;43.85;18.08;;;3.90;99.90;;;;;;5040546;28;20021;-79
2020/12/16 07:02:25;;;;;;;41.15;18.40;;;3.90;99.90;;;;;;5025092;28;20036;-79
2020/12/16 07:04:51;;;;;;;91.70;18.40;;;3.80;99.90;;;;;;5024565;28;20060;-79
2020/12/16 07:07:40;;;;;;;44.25;20.42;;;3.70;99.90;;;;;;5021512;28;20022;-79
2020/12/16 07:10:33;;;;;;;39.78;19.67;;;3.80;99.90;;;;;;5023168;28;20029;-80
2020/12/16 07:13:17;;;;;;;100.72;19.15;;;3.90;99.90;;;;;;5035775;28;20033;-79
2020/12/16 07:15:52;;;;;;;51.40;18.60;;;4.00;99.90;;;;;;5042791;28;20464;-79
2020/12/16 07:18:30;;;;;;;130.15;18.67;;;4.00;99.90;;;;;;5025481;28;20030;-79
2020/12/16 07:21:08;;;;;;;94.25;18.88;;;4.00;99.90;;;;;;5038523;28;20029;-78
2020/12/16 07:24:05;;;;;;;54.72;17.35;;;4.00;99.90;;;;;;5040978;28;20032;-79
2020/12/16 07:26:34;;;;;;;63.28;16.38;;;4.00;99.90;;;;;;5015824;28;20033;-78
2020/12/16 07:29:20;;;;;;;48.08;15.75;;;4.10;99.90;;;;;;5037413;28;20049;-78
2020/12/16 07:31:58;;;;;;;45.78;17.00;;;4.10;99.90;;;;;;5018448;28;20037;-78
2020/12/16 07:34:24;;;;;;;52.67;15.40;;;4.20;99.90;;;;;;5023185;28;20033;-78
2020/12/16 07:37:02;;;;;;;54.28;15.70;;;4.30;99.90;;;;;;5054591;28;20025;-78
2020/12/16 07:39:29;;;;;;;27.80;16.05;;;4.30;99.90;;;;;;5037772;28;20026;-78
2020/12/16 07:41:57;;;;;;;23.17;14.95;;;4.20;99.90;;;;;;5046251;28;20025;-78
2020/12/16 07:44:23;;;;;;;24.15;14.13;;;4.20;99.90;;;;;;5025556;28;20620;-78
2020/12/16 07:46:51;;;;;;;25.33;14.55;;;4.10;99.90;;;;;;5042407;28;20605;-78
2020/12/16 07:49:18;;;;;;;32.88;18.23;;;4.20;99.90;;;;;;5027154;28;20021;-78
2020/12/16 07:51:44;;;;;;;24.75;15.20;;;4.30;99.90;;;;;;5043410;28;20080;-78
2020/12/16 07:54:10;;;;;;;59.83;15.98;;;4.40;99.90;;;;;;5025229;28;20029;-79
2020/12/16 07:56:36;;;;;;;83.40;14.55;;;4.50;99.90;;;;;;5044541;28;20029;-78
2020/12/16 07:59:13;;;;;;;65.70;15.82;;;4.50;99.90;;;;;;5048338;28;20137;-78
2020/12/16 08:01:39;;;;;;;40.67;15.50;;;4.50;99.90;;;;;;5045040;28;20035;-78
2020/12/16 08:04:06;;;;;;;54.40;17.35;;;4.50;99.90;;;;;;5027879;28;20021;-78
2020/12/16 08:06:32;;;;;;;37.92;15.20;;;4.30;99.90;;;;;;5045728;28;20021;-78
2020/12/16 08:08:59;;;;;;;31.48;16.15;;;4.10;99.90;;;;;;5047401;28;20029;-78
2020/12/16 08:11:27;;;;;;;54.17;18.48;;;4.20;99.90;;;;;;5045187;28;20428;-78
2020/12/16 08:14:06;;;;;;;30.83;14.55;;;4.30;99.90;;;;;;5045291;28;20036;-78
2020/12/16 08:16:34;;;;;;;32.47;15.90;;;4.30;99.90;;;;;;5042676;28;20119;-79
2020/12/16 08:19:01;;;;;;;33.35;14.38;;;4.20;99.90;;;;;;5044063;28;20056;-79
2020/12/16 08:21:27;;;;;;;49.95;15.60;;;4.10;99.90;;;;;;5040921;28;20026;-79
2020/12/16 08:23:55;;;;;;;40.72;16.60;;;4.20;99.90;;;;;;5018606;28;20388;-78
2020/12/16 08:26:24;;;;;;;35.85;16.65;;;4.30;99.90;;;;;;5021347;28;20017;-78
2020/12/16 08:28:51;;;;;;;98.38;17.17;;;4.30;99.90;;;;;;5037822;28;20033;-78
2020/12/16 08:31:22;;;;;;;68.63;18.55;;;4.40;99.90;;;;;;5038497;28;20044;-76
2020/12/16 08:33:49;;;;;;;48.33;19.23;;;4.40;99.90;;;;;;5041781;28;20044;-79
2020/12/16 08:36:21;;;;;;;41.38;16.90;;;4.40;99.90;;;;;;5042349;28;20025;-78
2020/12/16 08:38:49;;;;;;;42.65;16.45;;;4.50;99.90;;;;;;5026570;28;20026;-78
2020/12/16 08:41:29;;;;;;;44.85;17.90;;;4.40;99.90;;;;;;5042901;28;20025;-79
2020/12/16 08:43:55;;;;;;;41.08;17.50;;;4.40;99.90;;;;;;5039608;28;20014;-79
2020/12/16 08:46:24;;;;;;;27.25;16.55;;;4.40;99.90;;;;;;5044391;28;20037;-79
2020/12/16 08:48:57;;;;;;;32.22;17.58;;;4.40;99.90;;;;;;5040654;28;20112;-78
2020/12/16 08:51:30;;;;;;;35.08;17.25;;;4.20;99.90;;;;;;5038007;28;20381;-79
2020/12/16 08:54:01;;;;;;;25.98;17.38;;;4.10;99.90;;;;;;5024952;28;20295;-79
2020/12/16 08:56:45;;;;;;;31.80;16.77;;;4.10;99.90;;;;;;5041403;28;20029;-79
2020/12/16 08:59:30;;;;;;;30.42;17.17;;;4.20;99.90;;;;;;5024594;28;20029;-79
2020/12/16 09:02:08;;;;;;;30.20;16.77;;;4.30;99.90;;;;;;5032700;28;20029;-79
2020/12/16 09:04:42;;;;;;;28.13;16.58;;;4.30;99.90;;;;;;5025098;28;20026;-79
2020/12/16 09:07:35;;;;;;;42.75;15.75;;;4.30;99.90;;;;;;5043587;28;20025;-78
2020/12/16 09:10:08;;;;;;;30.50;15.70;;;4.00;99.90;;;;;;5044222;28;20057;-79
2020/12/16 09:12:38;;;;;;;24.83;14.93;;;4.00;99.90;;;;;;5025202;28;20454;-78
2020/12/16 09:15:04;;;;;;;26.15;12.95;;;4.00;99.90;;;;;;5041558;28;20018;-79
2020/12/16 09:17:32;;;;;;;27.70;14.32;;;4.10;99.90;;;;;;5042462;28;20056;-78
2020/12/16 09:19:58;;;;;;;31.75;15.00;;;4.00;99.90;;;;;;5042143;28;20068;-80
2020/12/16 09:22:29;;;;;;;43.78;13.38;;;4.10;99.90;;;;;;5025655;28;20022;-78
2020/12/16 09:24:56;;;;;;;23.42;13.10;;;4.00;99.90;;;;;;5041668;28;20245;-79
2020/12/16 09:27:21;;;;;;;42.75;14.55;;;4.00;99.90;;;;;;5042438;28;20443;-78
2020/12/16 09:29:48;;;;;;;32.30;16.83;;;3.90;99.90;;;;;;5024350;28;20041;-79
2020/12/16 09:32:19;;;;;;;27.13;15.77;;;4.00;99.90;;;;;;5040644;28;20018;-79
2020/12/16 09:34:46;;;;;;;35.27;13.17;;;4.10;99.90;;;;;;5039452;28;20040;-79
2020/12/16 09:37:18;;;;;;;21.27;13.55;;;4.10;99.90;;;;;;5039544;28;20028;-79
2020/12/16 09:39:44;;;;;;;;;;;4.30;99.90;;;;;;5025187;28;20021;-78
2020/12/16 09:42:18;;;;;;;25.90;15.90;;;4.40;99.90;;;;;;5040835;28;19905;-79
2020/12/16 09:44:46;;;;;;;33.88;19.20;;;4.50;99.90;;;;;;5023381;28;20025;-80
2020/12/16 09:47:20;;;;;;;39.47;21.58;;;4.70;99.90;;;;;;5040533;28;20093;-79
2020/12/16 09:49:58;;;;;;;32.65;20.75;;;4.70;99.90;;;;;;5024417;28;20025;-79
2020/12/16 09:52:30;;;;;;;53.63;28.10;;;4.80;99.90;;;;;;5041100;28;20025;-78
2020/12/16 09:54:56;;;;;;;38.22;21.85;;;4.80;99.90;;;;;;5041923;28;20032;-79
2020/12/16 09:57:23;;;;;;;27.25;15.40;;;4.80;99.90;;;;;;5042264;28;20029;-79
2020/12/16 09:59:52;;;;;;;24.90;13.80;;;5.00;99.90;;;;;;5042669;28;20101;-79
2020/12/16 10:02:19;;;;;;;18.55;11.70;;;5.10;99.90;;;;;;5024643;28;20031;-78
2020/12/16 10:04:45;;;;;;;13.90;10.07;;;5.10;99.90;;;;;;5040148;28;20427;-78
2020/12/16 10:07:11;;;;;;;20.30;11.10;;;5.10;99.90;;;;;;5043361;28;20025;-79
2020/12/16 10:09:39;;;;;;;13.80;10.48;;;5.20;99.90;;;;;;5042327;28;20075;-78
2020/12/16 10:12:05;;;;;;;14.38;10.50;;;5.10;99.90;;;;;;5041379;28;20025;-79
2020/12/16 10:14:31;;;;;;;16.52;10.77;;;5.10;99.90;;;;;;5043546;28;20068;-78
2020/12/16 10:16:57;;;;;;;17.48;10.65;;;5.00;99.90;;;;;;5040883;28;20479;-78
2020/12/16 10:19:22;;;;;;;19.35;12.77;;;5.20;99.90;;;;;;5040433;28;20022;-79
2020/12/16 10:21:49;;;;;;;16.45;12.05;;;5.20;99.90;;;;;;5041354;28;20026;-79
2020/12/16 10:24:19;;;;;;;22.35;12.55;;;5.30;99.90;;;;;;5042567;28;20026;-78
2020/12/16 10:26:46;;;;;;;19.55;13.27;;;5.40;99.90;;;;;;5040400;28;20029;-79
2020/12/16 10:29:13;;;;;;;17.08;12.02;;;5.50;99.90;;;;;;5042467;28;20018;-79
2020/12/16 10:31:39;;;;;;;19.00;10.38;;;5.40;99.90;;;;;;5040514;28;20055;-78
2020/12/16 10:34:05;;;;;;;19.27;12.60;;;5.60;99.90;;;;;;5041876;28;20030;-78
2020/12/16 10:36:31;;;;;;;22.48;13.70;;;5.70;99.90;;;;;;5041016;28;20029;-79
2020/12/16 10:38:57;;;;;;;21.77;14.15;;;5.80;99.90;;;;;;5040323;28;20323;-79
2020/12/16 10:41:23;;;;;;;14.60;10.13;;;5.70;99.90;;;;;;5024299;28;20053;-78
2020/12/16 10:43:48;;;;;;;16.17;10.55;;;5.70;99.90;;;;;;5039938;28;20362;-79
2020/12/16 10:46:14;;;;;;;14.48;10.80;;;5.90;99.90;;;;;;5026881;28;20053;-79
2020/12/16 10:48:40;;;;;;;12.43;8.85;;;6.00;99.90;;;;;;5022342;28;20512;-76
2020/12/16 10:51:06;;;;;;;14.35;9.57;;;6.00;99.90;;;;;;5031628;28;20033;-76
2020/12/16 10:53:32;;;;;;;13.75;9.23;;;6.10;99.90;;;;;;5031964;28;20032;-77
2020/12/16 10:55:58;;;;;;;14.38;10.70;;;6.00;99.90;;;;;;5030300;28;20021;-78
2020/12/16 10:58:28;;;;;;;14.07;8.88;;;6.20;99.90;;;;;;5031231;28;20433;-77
2020/12/16 11:00:54;;;;;;;11.75;8.30;;;6.40;99.90;;;;;;5013601;28;20028;-77
2020/12/16 11:03:20;;;;;;;7.95;6.55;;;6.40;99.90;;;;;;5030397;28;20025;-77
2020/12/16 11:05:45;;;;;;;10.43;6.18;;;6.30;99.90;;;;;;5030724;28;20021;-76
2020/12/16 11:08:11;;;;;;;13.02;7.05;;;6.10;99.90;;;;;;5031014;28;20025;-77
2020/12/16 11:10:37;;;;;;;10.70;7.85;;;6.10;99.90;;;;;;5013001;28;20109;-77
2020/12/16 11:13:04;;;;;;;16.10;9.45;;;6.30;99.90;;;;;;5028396;28;20033;-77
2020/12/16 11:15:32;;;;;;;13.57;9.25;;;6.40;99.90;;;;;;5029672;28;20064;-76
2020/12/16 11:17:58;;;;;;;13.40;8.50;;;6.60;99.90;;;;;;5029986;28;20029;-77
2020/12/16 11:20:23;;;;;;;22.33;9.05;;;6.60;99.90;;;;;;5024774;28;20351;-78
2020/12/16 11:23:05;;;;;;;10.90;7.95;;;6.60;99.90;;;;;;4999155;28;20264;-77
2020/12/16 11:25:30;;;;;;;11.38;6.93;;;6.60;99.90;;;;;;5012506;28;20560;-78
2020/12/16 11:27:56;;;;;;;8.73;7.03;;;6.50;99.90;;;;;;5029602;28;20029;-78
2020/12/16 11:30:22;;;;;;;9.77;6.78;;;6.60;99.90;;;;;;5030271;28;20053;-77
2020/12/16 11:32:48;;;;;;;8.50;6.95;;;6.60;99.90;;;;;;5046347;28;20440;-78
2020/12/16 11:35:13;;;;;;;8.82;6.82;;;6.70;99.90;;;;;;5011221;28;20052;-78
2020/12/16 11:37:43;;;;;;;10.90;7.35;;;6.70;99.90;;;;;;5030243;28;20032;-78
2020/12/16 11:40:09;;;;;;;11.23;7.20;;;6.60;99.90;;;;;;5027987;28;20397;-78
2020/12/16 11:42:35;;;;;;;8.77;7.05;;;6.50;99.90;;;;;;5030284;28;20029;-78
2020/12/16 11:45:00;;;;;;;9.30;6.20;;;6.40;99.90;;;;;;5028294;28;20017;-78
2020/12/16 11:47:26;;;;;;;9.48;7.15;;;6.40;99.90;;;;;;5018589;28;20559;-78
2020/12/16 11:49:52;;;;;;;9.90;7.07;;;6.50;99.90;;;;;;5024763;28;20026;-78
2020/12/16 11:52:18;;;;;;;8.48;6.28;;;6.40;99.90;;;;;;5027544;28;20117;-77
2020/12/16 11:54:44;;;;;;;10.55;7.60;;;6.40;99.90;;;;;;5008643;28;20080;-78
2020/12/16 11:57:09;;;;;;;11.63;8.82;;;6.40;99.90;;;;;;5022719;28;20154;-78
2020/12/16 11:59:35;;;;;;;13.63;8.57;;;6.30;99.90;;;;;;5028647;28;20389;-78
2020/12/16 12:02:04;;;;;;;18.92;11.05;;;6.50;99.90;;;;;;5028414;28;20041;-78
2020/12/16 12:04:31;;;;;;;15.88;9.40;;;6.60;99.90;;;;;;5013863;28;20029;-77
2020/12/16 12:06:57;;;;;;;14.43;8.98;;;6.60;99.90;;;;;;5010150;28;20026;-78
2020/12/16 12:09:23;;;;;;;13.02;9.63;;;6.80;99.90;;;;;;5024250;28;20104;-77
2020/12/16 12:11:50;;;;;;;15.23;8.45;;;6.90;99.90;;;;;;5010280;28;20026;-78
2020/12/16 12:14:18;;;;;;;34.47;8.85;;;6.90;99.90;;;;;;5023183;28;20112;-77
2020/12/16 12:16:46;;;;;;;22.00;10.00;;;7.00;99.90;;;;;;5030458;28;20028;-78
2020/12/16 12:19:12;;;;;;;15.32;10.43;;;7.10;99.90;;;;;;5029155;28;20029;-77
2020/12/16 12:21:38;;;;;;;27.40;9.85;;;7.00;99.90;;;;;;5028425;28;20576;-77
2020/12/16 12:24:03;;;;;;;14.35;10.35;;;6.90;99.90;;;;;;5029775;28;20030;-78
2020/12/16 12:26:29;;;;;;;14.02;10.25;;;6.90;99.90;;;;;;5033461;28;20434;-78
2020/12/16 12:28:55;;;;;;;20.77;12.15;;;7.00;99.90;;;;;;5032390;28;20432;-78
2020/12/16 12:31:21;;;;;;;18.67;12.30;;;7.00;99.90;;;;;;5038913;22;20512;-91
2020/12/16 12:34:31;;;;;;;;;;;;;;;;;;;;;
2020/12/16 12:37:07;;;;;;;17.10;11.80;;;7.10;99.90;;;;;;5026793;28;20057;-91
2020/12/16 12:39:53;;;;;;;;;;;;;;;;;;;;;
2020/12/16 12:42:50;;;;;;;22.80;13.48;;;7.10;99.90;;;;;;4906347;29;20064;-92
2020/12/16 12:46:05;;;;;;;;;;;;;;;;;;;;;
2020/12/16 12:48:57;;;;;;;32.50;14.55;;;7.40;99.90;;;;;;5004005;28;20550;-91
2020/12/16 13:03:50;;;;;;;25.10;15.32;;;7.90;99.90;;;;;;4845034;29;20129;-92
2020/12/16 13:34:11;;;;;;;;;;;;;;;;;;;;;
2020/12/16 13:41:48;;;;;;;25.80;15.18;;;7.90;99.90;;;;;;4823843;29;20484;-92
2020/12/16 13:45:03;;;;;;;22.92;14.07;;;7.80;99.90;;;;;;4846945;29;20049;-92